Time;durP1;ratioP1;P1;durP2;ratioP2;P2;SDS_P1;SDS_P2;PMS_P1;PMS_P2;Temp;Humidity;BMP_temperature;BMP_pressure;BME280_temperature;BME280_humidity;BME280_pressure;Samples;Min_cycle;Max_cycle;Signal;HPM_P1;HPM_P2
2022/12/24 00:02:16;;;;;;;;;8.33;5.00;;;;;13.06;71.80;100861.06;5077607;27;45270;-74
2022/12/24 00:04:41;;;;;;;;;8.33;5.67;;;;;12.35;71.69;100749.19;5077150;27;46679;-73
2022/12/24 00:07:06;;;;;;;;;9.67;6.33;;;;;13.12;71.36;100880.97;5077080;28;45495;-72
2022/12/24 00:09:32;;;;;;;;;8.67;5.33;;;;;13.02;71.55;100838.38;5077306;27;45297;-73
2022/12/24 00:11:57;;;;;;;;;9.00;7.00;;;;;13.14;71.45;100878.97;5078108;27;45564;-73
2022/12/24 00:14:22;;;;;;;;;8.67;5.67;;;;;13.00;71.70;100843.84;5069851;27;46337;-73
2022/12/24 00:16:48;;;;;;;;;8.67;4.67;;;;;12.80;71.40;100834.38;5042764;28;50360;-74
2022/12/24 00:19:13;;;;;;;;;8.00;6.33;;;;;12.92;71.71;100832.28;5060935;28;45359;-73
2022/12/24 00:21:38;;;;;;;;;9.33;5.00;;;;;13.16;71.37;100879.66;5060949;28;45377;-73
2022/12/24 00:24:04;;;;;;;;;8.33;7.67;;;;;12.88;71.45;100825.59;5060357;28;45422;-74
2022/12/24 00:26:31;;;;;;;;;9.67;6.00;;;;;13.08;71.58;100877.78;5060348;28;45230;-72
2022/12/24 00:28:57;;;;;;;;;8.00;6.67;;;;;12.87;71.73;100839.94;5060459;28;45359;-73
2022/12/24 00:31:22;;;;;;;;;12.33;8.00;;;;;13.07;71.61;100890.28;5060619;28;45290;-73
2022/12/24 00:33:48;;;;;;;;;9.67;6.00;;;;;12.95;71.43;100864.81;5060089;28;45348;-73
2022/12/24 00:36:13;;;;;;;;;6.33;5.00;;;;;12.70;71.69;100841.66;5060290;28;45423;-74
2022/12/24 00:38:39;;;;;;;;;9.67;7.00;;;;;12.98;71.82;100890.38;5042343;28;45239;-71
2022/12/24 00:41:22;;;;;;;;;10.67;5.00;;;;;12.80;71.98;100850.38;5060614;28;45255;-73
2022/12/24 00:43:52;;;;;;;;;8.00;5.33;;;;;12.93;71.92;100893.50;5060182;28;45297;-74
2022/12/24 00:46:17;;;;;;;;;9.67;5.33;;;;;12.40;72.16;100800.22;5060115;28;45319;-73
2022/12/24 00:48:43;;;;;;;;;9.00;8.00;;;;;12.82;72.17;100888.44;5042177;28;45566;-74
2022/12/24 00:51:08;;;;;;;;;12.00;6.33;;;;;12.91;72.45;100914.19;5060306;28;45619;-72
2022/12/24 00:53:33;;;;;;;;;8.67;7.67;;;;;12.93;72.23;100903.34;5059964;28;46015;-73
2022/12/24 00:55:59;;;;;;;;;5.00;4.67;;;;;12.60;72.18;100851.56;5059859;28;45552;-74
2022/12/24 00:58:24;;;;;;;;;9.00;6.00;;;;;12.76;71.94;100867.69;5041797;28;45353;-74
2022/12/24 01:00:49;;;;;;;;;11.33;7.00;;;;;12.52;72.39;100840.81;5060046;28;45374;-74
2022/12/24 01:03:15;;;;;;;;;9.33;8.67;;;;;12.73;72.29;100897.34;5059795;28;45595;-73
2022/12/24 01:05:40;;;;;;;;;4.00;4.00;;;;;12.39;72.60;100854.53;5041762;28;46512;-74
2022/12/24 01:08:06;;;;;;;;;8.00;5.00;;;;;12.78;72.45;100909.22;5041817;28;45415;-73
2022/12/24 01:10:31;;;;;;;;;8.33;6.00;;;;;12.86;72.92;100926.31;5041859;28;45646;-75
2022/12/24 01:13:00;;;;;;;;;9.67;7.00;;;;;12.83;72.32;100922.13;5041465;28;47510;-73
2022/12/24 01:15:25;;;;;;;;;9.67;8.00;;;;;12.70;72.55;100881.66;5059303;28;45615;-75
2022/12/24 01:17:51;;;;;;;;;10.33;7.00;;;;;12.74;72.98;100883.03;5059403;28;45210;-73
2022/12/24 01:20:16;;;;;;;;;15.00;7.67;;;;;12.43;72.97;100843.44;5059828;28;45448;-73
2022/12/24 01:22:42;;;;;;;;;10.33;9.33;;;;;12.81;73.03;100913.41;5042433;28;46206;-73
2022/12/24 01:25:07;;;;;;;;;13.00;5.67;;;;;12.44;73.00;100823.78;5059293;28;45556;-73
2022/12/24 01:27:33;;;;;;;;;13.00;8.00;;;;;12.72;73.29;100890.34;5059806;28;45471;-75
2022/12/24 01:29:58;;;;;;;;;10.67;6.33;;;;;12.80;73.17;100914.41;5059646;28;45384;-73
2022/12/24 01:32:24;;;;;;;;;7.00;4.00;;;;;12.56;73.25;100880.38;5059175;28;46583;-73
2022/12/24 01:34:49;;;;;;;;;8.00;7.00;;;;;12.80;73.50;100925.91;5059251;28;45358;-73
2022/12/24 01:37:14;;;;;;;;;5.00;5.00;;;;;12.50;73.30;100875.66;5059449;28;45303;-72
2022/12/24 01:39:40;;;;;;;;;10.00;7.00;;;;;12.42;73.20;100865.75;5059528;28;45182;-71
2022/12/24 01:45:41;;;;;;;;;8.33;6.00;;;;;12.78;73.68;100916.38;5059166;28;45515;-75
2022/12/24 01:48:21;;;;;;;;;10.67;6.67;;;;;12.72;74.02;100920.53;5059087;28;45215;-73
2022/12/24 01:50:49;;;;;;;;;12.33;8.00;;;;;12.53;73.91;100891.34;5059531;28;45566;-73
2022/12/24 01:53:15;;;;;;;;;8.00;5.33;;;;;12.16;74.06;100841.66;5058977;28;46670;-72
2022/12/24 01:55:41;;;;;;;;;14.33;10.00;;;;;12.70;73.92;100929.66;5058763;28;45499;-72
2022/12/24 01:58:09;;;;;;;;;8.67;7.00;;;;;12.46;74.03;100896.47;5059225;28;45433;-74
2022/12/24 02:00:35;;;;;;;;;12.00;6.00;;;;;12.70;74.28;100948.34;5041013;28;45532;-73
2022/12/24 02:03:01;;;;;;;;;11.00;6.00;;;;;12.67;74.29;100951.31;5058400;28;45790;-73
2022/12/24 02:05:35;;;;;;;;;7.00;7.00;;;;;12.67;74.02;100946.00;5058543;28;46166;-72
2022/12/24 02:08:02;;;;;;;;;9.00;7.00;;;;;12.71;73.90;100956.19;5058963;28;45453;-73
2022/12/24 02:10:28;;;;;;;;;9.00;7.00;;;;;12.72;74.37;100962.38;5058773;28;45593;-74
2022/12/24 02:12:54;;;;;;;;;12.67;9.67;;;;;12.53;74.08;100930.50;5058540;28;46140;-73
2022/12/24 02:15:20;;;;;;;;;10.67;7.33;;;;;12.23;74.15;100878.41;5074883;28;46639;-74
2022/12/24 02:18:20;;;;;;;;;10.67;6.67;;;;;12.68;74.47;100959.16;5078754;28;45529;-74
2022/12/24 02:21:07;;;;;;;;;11.33;6.67;;;;;12.70;74.25;100951.00;5070811;27;45623;-74
2022/12/24 02:24:20;;;;;;;;;10.00;7.33;;;;;12.62;74.39;100933.13;5078504;28;46541;-73
2022/12/24 02:27:04;;;;;;;;;8.67;6.00;;;;;12.64;74.30;100946.28;5078631;27;45418;-71
2022/12/24 02:29:50;;;;;;;;;10.00;8.67;;;;;12.63;74.72;100949.97;5078724;27;45315;-73
2022/12/24 02:32:44;;;;;;;;;9.67;6.67;;;;;12.26;74.31;100900.25;5079202;27;45401;-71
2022/12/24 02:35:20;;;;;;;;;16.33;6.00;;;;;12.44;74.44;100930.44;5078022;28;46634;-73
2022/12/24 02:37:51;;;;;;;;;11.00;8.67;;;;;12.36;74.55;100909.00;5077045;28;45354;-72
2022/12/24 02:40:32;;;;;;;;;14.00;4.00;;;;;12.61;75.02;100959.91;5078583;28;45327;-72
2022/12/24 02:43:04;;;;;;;;;11.33;7.33;;;;;12.37;74.77;100901.84;5078627;28;45439;-71
2022/12/24 02:45:32;;;;;;;;;13.33;7.00;;;;;12.39;75.28;100906.03;5078366;27;45605;-72
2022/12/24 02:47:59;;;;;;;;;9.00;7.00;;;;;12.53;74.85;100927.84;5077019;28;45331;-73
2022/12/24 02:50:25;;;;;;;;;11.67;7.00;;;;;12.37;75.06;100918.69;5078348;27;45391;-73
2022/12/24 02:52:51;;;;;;;;;18.33;8.00;;;;;12.55;74.99;100968.53;5076946;28;45314;-73
2022/12/24 02:55:31;;;;;;;;;10.00;7.33;;;;;12.60;75.10;100963.56;5078038;27;47781;-72
2022/12/24 02:58:24;;;;;;;;;9.67;8.67;;;;;12.62;74.46;100945.63;5076820;28;46104;-72
2022/12/24 03:01:17;;;;;;;;;7.67;5.33;;;;;12.61;74.68;100941.25;5078339;27;45492;-74
2022/12/24 03:03:42;;;;;;;;;9.33;6.33;;;;;12.64;74.97;100941.81;5077003;28;45390;-75
2022/12/24 03:06:20;;;;;;;;;8.00;7.67;;;;;12.21;74.50;100870.53;5077790;28;46988;-74
2022/12/24 03:09:09;;;;;;;;;10.67;7.67;;;;;12.57;74.77;100918.53;5078020;28;45509;-72
2022/12/24 03:11:37;;;;;;;;;9.67;6.00;;;;;12.25;74.77;100884.41;5078250;27;45435;-72
2022/12/24 03:14:03;;;;;;;;;9.00;6.67;;;;;12.61;74.61;100928.75;5069568;27;45612;-73
2022/12/24 03:16:28;;;;;;;;;7.33;6.00;;;;;12.35;74.40;100885.16;5057439;28;45746;-72
2022/12/24 03:18:56;;;;;;;;;12.00;8.00;;;;;12.64;74.73;100932.97;5057601;28;45320;-72
2022/12/24 03:21:27;;;;;;;;;10.67;8.33;;;;;12.62;75.02;100938.44;5057937;28;45336;-72
2022/12/24 03:23:54;;;;;;;;;6.00;6.00;;;;;12.35;75.24;100895.84;5040264;28;45252;-72
2022/12/24 03:26:20;;;;;;;;;8.00;6.33;;;;;12.40;75.13;100896.22;5057205;28;48096;-73
2022/12/24 03:28:46;;;;;;;;;9.00;6.67;;;;;12.00;75.43;100824.69;5057403;28;45562;-71
2022/12/24 03:31:13;;;;;;;;;8.67;8.00;;;;;12.32;75.62;100883.66;5057406;28;45419;-75
2022/12/24 03:33:38;;;;;;;;;10.00;6.00;;;;;11.81;75.94;100788.34;5057757;28;45537;-75
2022/12/24 03:36:05;;;;;;;;;7.67;6.00;;;;;12.60;75.36;100920.91;5039065;28;47323;-72
2022/12/24 03:38:31;;;;;;;;;12.33;7.67;;;;;12.56;75.62;100911.53;5057268;28;45259;-74
2022/12/24 03:40:56;;;;;;;;;10.33;8.00;;;;;12.07;75.55;100845.25;5057829;28;45518;-72
2022/12/24 03:43:22;;;;;;;;;14.33;7.33;;;;;12.50;75.72;100918.31;5057371;28;45448;-72
2022/12/24 03:45:48;;;;;;;;;9.67;8.33;;;;;12.56;75.63;100930.19;5057061;28;45325;-73
2022/12/24 03:48:13;;;;;;;;;8.00;7.00;;;;;12.47;75.54;100924.81;5055836;28;45530;-73
2022/12/24 03:50:38;;;;;;;;;10.33;7.67;;;;;12.40;75.64;100920.22;5056851;28;53908;-72
2022/12/24 03:53:04;;;;;;;;;8.33;5.67;;;;;12.25;75.77;100893.25;5057459;28;45471;-72
2022/12/24 03:55:29;;;;;;;;;12.67;7.67;;;;;11.81;75.42;100815.84;5056987;28;46535;-73
2022/12/24 03:57:54;;;;;;;;;9.67;7.00;;;;;12.44;75.25;100914.44;5056911;28;45254;-73
2022/12/24 04:00:20;;;;;;;;;9.00;5.67;;;;;12.59;75.58;100948.56;5038630;28;54983;-72
2022/12/24 04:02:45;;;;;;;;;7.33;6.00;;;;;12.05;75.47;100859.72;5039128;28;45495;-71
2022/12/24 04:05:17;;;;;;;;;12.00;5.67;;;;;12.56;75.88;100959.53;5056974;28;46485;-72
2022/12/24 04:07:43;;;;;;;;;12.67;9.00;;;;;12.29;75.54;100910.63;5056945;28;45341;-72
2022/12/24 04:10:09;;;;;;;;;11.33;9.00;;;;;12.10;75.37;100884.09;5056698;28;45454;-71
2022/12/24 04:12:35;;;;;;;;;10.33;7.33;;;;;12.09;75.78;100891.25;5038705;28;45430;-74
2022/12/24 04:15:00;;;;;;;;;14.33;9.00;;;;;12.26;76.02;100926.09;5056427;28;46595;-72
2022/12/24 04:17:26;;;;;;;;;12.67;5.67;;;;;12.19;76.19;100904.50;5055140;28;45674;-73
2022/12/24 04:19:51;;;;;;;;;6.00;5.00;;;;;12.41;76.03;100957.41;5056407;28;48770;-74
2022/12/24 04:22:16;;;;;;;;;14.33;7.00;;;;;12.42;76.35;100964.41;5056924;28;45436;-72
2022/12/24 04:24:42;;;;;;;;;15.00;7.67;;;;;12.45;76.12;100974.78;5056690;28;46503;-72
2022/12/24 04:27:07;;;;;;;;;11.00;8.33;;;;;12.37;76.13;100964.00;5038269;28;45406;-73
2022/12/24 04:29:33;;;;;;;;;19.33;8.00;;;;;12.06;76.34;100922.69;5056417;28;45353;-72
2022/12/24 04:31:58;;;;;;;;;8.33;6.67;;;;;12.40;76.11;100976.19;5056779;28;45386;-73
2022/12/24 04:34:23;;;;;;;;;7.33;3.67;;;;;12.10;76.43;100932.91;5055915;28;63160;-72
2022/12/24 04:36:48;;;;;;;;;8.67;7.00;;;;;12.19;76.43;100939.16;5056495;28;45464;-74
2022/12/24 04:39:14;;;;;;;;;13.67;8.33;;;;;12.29;76.23;100969.25;5038365;28;45429;-73
2022/12/24 04:41:39;;;;;;;;;9.00;7.33;;;;;12.37;76.83;100976.50;5038505;28;45578;-74
2022/12/24 04:44:04;;;;;;;;;11.00;6.00;;;;;12.36;76.64;100986.34;5056036;28;46570;-75
2022/12/24 04:46:30;;;;;;;;;7.33;6.33;;;;;12.35;76.85;101000.66;5056317;28;45465;-72
2022/12/24 04:48:56;;;;;;;;;8.67;5.00;;;;;12.03;76.70;100941.66;5056305;28;45309;-73
2022/12/24 04:51:23;;;;;;;;;12.33;8.00;;;;;11.49;77.23;100853.56;5056838;28;45187;-73
2022/12/24 04:53:49;;;;;;;;;9.00;7.00;;;;;11.79;76.90;100904.88;5055990;28;46753;-73
2022/12/24 04:56:22;;;;;;;;;12.00;6.33;;;;;12.26;76.83;100995.38;5055822;28;45330;-72
2022/12/24 04:58:48;;;;;;;;;16.00;10.67;;;;;11.78;77.56;100905.81;5056893;28;45238;-72
2022/12/24 05:01:17;;;;;;;;;9.67;8.33;;;;;12.29;77.47;100987.09;5059828;28;45261;-74
2022/12/24 05:03:43;;;;;;;;;10.33;7.00;;;;;12.07;77.09;100959.00;5059739;28;47598;-73
2022/12/24 05:06:12;;;;;;;;;10.33;7.67;;;;;12.18;77.70;100982.78;5059587;28;45360;-72
2022/12/24 05:08:38;;;;;;;;;11.00;7.33;;;;;10.89;77.44;100775.09;5059943;28;45304;-74
2022/12/24 05:11:03;;;;;;;;;13.67;9.00;;;;;11.88;77.79;100955.44;5041747;28;45302;-72
2022/12/24 05:13:29;;;;;;;;;11.33;7.67;;;;;12.05;77.53;100969.00;5044571;27;47796;-71
2022/12/24 05:15:54;;;;;;;;;9.33;6.00;;;;;12.17;77.63;100997.09;5078172;28;46658;-74
2022/12/24 05:18:20;;;;;;;;;14.33;10.00;;;;;12.21;77.74;100993.16;5079987;27;45500;-73
2022/12/24 05:20:47;;;;;;;;;8.33;8.33;;;;;11.92;77.91;100947.16;5080049;27;45464;-73
2022/12/24 05:26:23;;;;;;;;;9.33;7.67;;;;;11.39;78.07;100863.38;5079742;27;45466;-73
2022/12/24 05:28:53;;;;;;;;;10.33;9.00;;;;;10.82;78.52;100766.00;5079682;27;45221;-73
2022/12/24 05:31:19;;;;;;;;;9.33;7.33;;;;;12.23;78.39;100995.69;5079587;27;45276;-72
2022/12/24 05:33:45;;;;;;;;;12.00;8.00;;;;;12.15;78.19;100975.09;5077795;28;45672;-73
2022/12/24 05:36:10;;;;;;;;;8.00;6.00;;;;;12.03;78.09;100941.66;5079450;27;45461;-73
2022/12/24 05:38:36;;;;;;;;;11.67;8.00;;;;;11.67;78.31;100892.72;5079674;28;45342;-72
2022/12/24 05:41:04;;;;;;;;;12.67;7.00;;;;;12.13;78.37;100953.06;5079568;27;45407;-73
2022/12/24 05:43:30;;;;;;;;;10.67;8.33;;;;;12.22;78.67;100978.03;5078259;27;49042;-72
2022/12/24 05:46:00;;;;;;;;;11.67;9.33;;;;;12.22;78.82;100978.84;5078005;28;45332;-73
2022/12/24 05:48:26;;;;;;;;;12.33;7.33;;;;;12.14;78.76;100954.75;5079364;27;45418;-71
2022/12/24 05:50:52;;;;;;;;;6.67;6.00;;;;;11.06;78.60;100811.56;5079546;28;45227;-73
2022/12/24 05:53:17;;;;;;;;;13.67;9.00;;;;;12.25;78.51;100973.22;5078944;27;46498;-74
2022/12/24 05:55:42;;;;;;;;;12.33;9.00;;;;;11.48;78.69;100846.56;5078826;27;49695;-73
2022/12/24 05:58:07;;;;;;;;;11.67;9.67;;;;;12.16;79.17;100945.63;5078985;27;45299;-71
2022/12/24 06:00:33;;;;;;;;;11.67;6.00;;;;;11.57;78.99;100839.50;5079148;27;45318;-73
2022/12/24 06:02:58;;;;;;;;;10.33;6.00;;;;;11.76;78.83;100875.84;5080279;27;49104;-73
2022/12/24 06:05:23;;;;;;;;;9.67;7.00;;;;;12.03;78.47;100921.16;5077965;28;45427;-73
2022/12/24 06:07:49;;;;;;;;;14.33;8.67;;;;;12.33;79.11;100969.78;5077842;28;45727;-74
2022/12/24 06:10:14;;;;;;;;;13.33;7.00;;;;;12.14;79.13;100933.44;5078305;28;45401;-71
2022/12/24 06:12:40;;;;;;;;;16.00;7.67;;;;;12.21;78.62;100947.00;5077428;28;47449;-76
2022/12/24 06:15:05;;;;;;;;;9.67;6.67;;;;;12.20;78.61;100943.50;5077205;28;49488;-73
2022/12/24 06:17:31;;;;;;;;;6.00;6.00;;;;;12.30;78.77;100970.94;5078861;27;45449;-71
2022/12/24 06:19:56;;;;;;;;;11.67;8.00;;;;;12.02;78.66;100934.66;5078919;28;45296;-72
2022/12/24 06:22:21;;;;;;;;;12.00;6.33;;;;;11.65;78.70;100873.38;5077987;27;62924;-73
2022/12/24 06:24:47;;;;;;;;;5.00;5.00;;;;;12.13;78.55;100956.59;5078548;27;45547;-74
2022/12/24 06:27:12;;;;;;;;;10.67;5.33;;;;;11.82;79.04;100900.09;5078943;28;45326;-73
2022/12/24 06:29:37;;;;;;;;;6.67;4.00;;;;;11.53;78.75;100859.41;5077857;28;45383;-74
2022/12/24 06:32:03;;;;;;;;;11.33;8.67;;;;;10.31;77.96;100651.16;5077548;28;51721;-74
2022/12/24 06:34:28;;;;;;;;;13.00;9.33;;;;;12.26;78.16;100960.72;5078553;27;45464;-73
2022/12/24 06:36:53;;;;;;;;;7.33;5.33;;;;;11.72;77.91;100880.63;5078867;27;45280;-72
2022/12/24 06:39:19;;;;;;;;;10.33;6.33;;;;;11.88;78.19;100915.50;5078809;28;45521;-73
2022/12/24 06:41:44;;;;;;;;;9.00;5.00;;;;;11.80;77.96;100903.88;5078401;27;45597;-73
2022/12/24 06:44:09;;;;;;;;;6.00;4.67;;;;;11.75;77.43;100884.81;5078410;27;45480;-72
2022/12/24 06:46:35;;;;;;;;;6.00;5.33;;;;;11.85;77.10;100909.63;5078612;28;45395;-73
2022/12/24 06:49:00;;;;;;;;;9.33;4.33;;;;;12.24;77.20;100960.88;5078520;27;45244;-73
2022/12/24 06:51:25;;;;;;;;;6.33;6.33;;;;;12.18;77.19;100953.47;5078474;27;46532;-74
2022/12/24 06:53:51;;;;;;;;;5.33;2.00;;;;;11.90;77.06;100914.50;5076866;28;45408;-73
2022/12/24 06:56:18;;;;;;;;;8.67;6.33;;;;;11.81;77.10;100909.09;5078301;27;45341;-73
2022/12/24 06:58:44;;;;;;;;;6.00;5.33;;;;;12.21;77.30;100966.50;5077198;27;45573;-73
2022/12/24 07:01:13;;;;;;;;;6.67;4.00;;;;;12.23;76.73;100969.03;5078151;28;45694;-73
2022/12/24 07:03:39;;;;;;;;;3.33;3.00;;;;;12.24;77.21;100976.88;5076594;28;45440;-74
2022/12/24 07:06:04;;;;;;;;;7.00;3.00;;;;;12.25;76.92;100978.56;5078278;27;45542;-72
2022/12/24 07:08:35;;;;;;;;;1.33;1.33;;;;;12.09;76.95;100962.38;5076977;28;45543;-72
2022/12/24 07:11:00;;;;;;;;;5.67;4.00;;;;;12.15;76.45;100967.09;5078036;28;45626;-73
2022/12/24 07:13:26;;;;;;;;;4.00;3.00;;;;;12.20;76.46;100980.81;5075075;28;45542;-73
2022/12/24 07:15:59;;;;;;;;;6.67;4.33;;;;;12.18;76.42;100988.13;5040298;28;45395;-72
2022/12/24 07:18:24;;;;;;;;;5.67;3.00;;;;;11.82;76.56;100934.75;5057957;28;45566;-75
2022/12/24 07:20:49;;;;;;;;;4.00;2.33;;;;;12.15;76.21;100996.41;5057374;28;46509;-73
2022/12/24 07:23:15;;;;;;;;;7.00;3.33;;;;;11.93;76.13;100962.16;5057284;28;52461;-74
2022/12/24 07:25:43;;;;;;;;;5.00;4.33;;;;;11.87;75.91;100948.44;5057111;28;45460;-72
2022/12/24 07:28:08;;;;;;;;;7.67;3.67;;;;;11.51;75.63;100888.84;5057812;28;45534;-72
2022/12/24 07:30:34;;;;;;;;;10.67;7.00;;;;;11.80;75.78;100939.34;5057171;28;45405;-73
2022/12/24 07:32:59;;;;;;;;;7.67;3.67;;;;;12.18;76.17;100994.28;5039402;28;46164;-73
2022/12/24 07:35:25;;;;;;;;;4.67;3.00;;;;;11.74;75.51;100917.75;5057625;28;45502;-74
2022/12/24 07:37:50;;;;;;;;;4.33;3.00;;;;;11.87;75.17;100948.44;5056990;28;45419;-74
2022/12/24 07:40:16;;;;;;;;;3.33;3.00;;;;;12.10;75.44;100990.69;5057011;28;45419;-71
2022/12/24 07:42:41;;;;;;;;;4.00;2.00;;;;;12.08;75.64;100984.69;5057203;28;45598;-73
2022/12/24 07:45:07;;;;;;;;;4.33;3.33;;;;;12.15;75.17;100983.94;5057495;28;45278;-73
2022/12/24 07:47:34;;;;;;;;;3.67;3.67;;;;;12.25;75.43;101005.22;5039122;28;45259;-75
2022/12/24 07:49:59;;;;;;;;;6.33;4.00;;;;;12.31;75.06;101020.59;5056995;28;46452;-72
2022/12/24 07:52:24;;;;;;;;;4.00;4.00;;;;;11.32;75.02;100845.50;5057218;28;45285;-72
2022/12/24 07:54:50;;;;;;;;;3.67;3.67;;;;;11.48;74.59;100867.00;5057218;28;45301;-73
2022/12/24 07:57:15;;;;;;;;;5.67;3.67;;;;;12.25;74.28;100981.22;5039486;28;45490;-73
2022/12/24 07:59:40;;;;;;;;;3.33;3.33;;;;;11.61;74.48;100867.50;5038827;28;48089;-71
2022/12/24 08:02:09;;;;;;;;;5.33;2.67;;;;;11.39;74.08;100841.25;5038477;28;53640;-73
2022/12/24 08:04:35;;;;;;;;;4.33;3.00;;;;;12.44;74.47;101022.94;5055639;28;45339;-73
2022/12/24 08:07:04;;;;;;;;;6.33;3.67;;;;;11.98;74.39;100949.22;5057418;28;45356;-73
2022/12/24 08:09:34;;;;;;;;;4.00;4.00;;;;;12.45;74.30;101022.78;5056761;28;46929;-71
2022/12/24 08:12:01;;;;;;;;;3.00;3.00;;;;;12.24;74.17;100992.03;5056747;28;45433;-72
2022/12/24 08:14:30;;;;;;;;;6.67;4.00;;;;;12.11;74.33;100974.56;5056854;28;45514;-71
2022/12/24 08:16:56;;;;;;;;;3.00;3.00;;;;;12.46;74.27;101029.78;5057012;28;45245;-74
2022/12/24 08:19:21;;;;;;;;;5.00;2.33;;;;;12.49;74.06;101034.81;5054017;28;45594;-75
2022/12/24 08:21:46;;;;;;;;;3.00;2.67;;;;;12.42;73.84;101027.56;5075544;28;45470;-72
2022/12/24 08:24:12;;;;;;;;;8.00;4.00;;;;;11.97;73.86;100956.38;5077291;28;45279;-71
2022/12/24 08:26:37;;;;;;;;;4.00;2.00;;;;;12.53;73.54;101039.84;5076694;28;45442;-72
2022/12/24 08:29:03;;;;;;;;;3.00;3.00;;;;;12.33;73.85;101031.97;5058111;28;47839;-73
2022/12/24 08:31:29;;;;;;;;;1.67;1.67;;;;;12.48;73.82;101054.47;5050577;28;45510;-72
2022/12/24 08:33:54;;;;;;;;;1.67;1.67;;;;;12.31;73.67;101020.59;5039710;28;45542;-72
2022/12/24 08:36:20;;;;;;;;;2.67;2.67;;;;;12.05;73.66;100983.16;5058899;28;45373;-71
2022/12/24 08:38:45;;;;;;;;;3.67;2.00;;;;;12.58;73.81;101067.75;5059693;28;45948;-72
2022/12/24 08:41:11;;;;;;;;;3.00;3.00;;;;;12.15;73.35;100994.59;5041889;28;45392;-74
2022/12/24 08:43:36;;;;;;;;;4.33;3.00;;;;;12.55;73.75;101062.72;5059973;28;45187;-71
2022/12/24 08:46:04;;;;;;;;;3.33;2.33;;;;;12.60;73.42;101064.94;5041782;28;45194;-72
2022/12/24 08:48:30;;;;;;;;;2.67;2.67;;;;;12.36;73.39;101034.31;5059730;28;45846;-76
2022/12/24 08:50:56;;;;;;;;;6.67;2.67;;;;;12.47;73.51;101041.28;5041050;28;45595;-74
2022/12/24 08:53:21;;;;;;;;;5.50;3.00;;;;;12.64;73.48;101064.50;5058046;28;45931;-73
2022/12/24 08:55:47;;;;;;;;;3.67;2.67;;;;;12.68;73.09;101076.53;5041710;28;45522;-72
2022/12/24 08:58:13;;;;;;;;;3.33;2.00;;;;;11.70;73.12;100927.88;5040834;28;45921;-73
2022/12/24 09:00:38;;;;;;;;;4.00;2.00;;;;;12.18;73.29;101020.09;5058625;28;45642;-72
2022/12/24 09:03:03;;;;;;;;;4.00;3.00;;;;;12.14;73.09;101024.06;5041168;28;45335;-72
2022/12/24 09:05:29;;;;;;;;;4.67;3.00;;;;;12.64;73.29;101107.19;5059618;28;45557;-73
2022/12/24 09:07:54;;;;;;;;;3.67;2.33;;;;;12.53;73.25;101086.03;5059280;28;47643;-72
2022/12/24 09:10:20;;;;;;;;;3.50;3.00;;;;;12.66;73.20;101107.88;5040617;28;45352;-74
2022/12/24 09:12:46;;;;;;;;;8.00;3.33;;;;;12.33;73.17;101055.13;5059034;28;45360;-73
2022/12/24 09:15:13;;;;;;;;;5.67;3.33;;;;;12.53;72.71;101086.03;5072573;28;45623;-74
2022/12/24 09:17:38;;;;;;;;;4.00;3.00;;;;;12.63;72.48;101094.00;5079022;27;45999;-73
2022/12/24 09:20:05;;;;;;;;;3.33;2.33;;;;;12.76;72.58;101105.97;5079225;27;45332;-75
2022/12/24 09:22:33;;;;;;;;;5.00;4.00;;;;;12.83;72.65;101119.56;5079566;27;45524;-76
2022/12/24 09:24:58;;;;;;;;;2.33;1.00;;;;;12.58;73.22;101094.41;5077996;28;45453;-75
2022/12/24 09:27:24;;;;;;;;;4.33;2.00;;;;;12.44;73.13;101074.44;5077593;28;47779;-74
2022/12/24 09:29:49;;;;;;;;;2.00;1.00;;;;;12.82;72.93;101125.91;5078727;27;45226;-72
2022/12/24 09:32:14;;;;;;;;;8.00;3.75;;;;;12.83;73.00;101127.59;5079028;28;48985;-73
2022/12/24 09:34:40;;;;;;;;;4.00;2.67;;;;;12.89;72.80;101140.31;5081187;27;45477;-75
2022/12/24 09:37:05;;;;;;;;;10.00;10.00;;;;;12.39;72.80;101062.50;5079848;27;46082;-76
2022/12/24 09:39:30;;;;;;;;;7.67;6.67;;;;;12.74;72.69;101117.78;5079104;27;45447;-71
2022/12/24 09:42:13;;;;;;;;;10.00;6.67;;;;;12.92;72.90;101147.19;5078850;27;45181;-71
2022/12/24 09:44:53;;;;;;;;;5.67;3.00;;;;;12.90;72.88;101150.00;5079838;27;45644;-73
2022/12/24 09:47:25;;;;;;;;;4.00;3.00;;;;;12.32;72.75;101042.78;5079260;27;46217;-72
2022/12/24 09:49:53;;;;;;;;;4.00;2.67;;;;;12.79;72.80;101091.50;5078410;27;45561;-75
2022/12/24 09:52:41;;;;;;;;;6.00;4.33;;;;;13.04;72.50;101133.50;5076790;27;45679;-71
2022/12/24 09:55:24;;;;;;;;;3.67;3.67;;;;;12.08;72.23;100966.03;5094363;27;45433;-72
2022/12/24 09:57:53;;;;;;;;;5.00;4.00;;;;;13.15;72.29;101132.41;5077173;27;48244;-73
2022/12/24 10:00:24;;;;;;;;;2.67;2.67;;;;;12.67;71.84;101053.53;5077311;27;45359;-73
2022/12/24 10:02:50;;;;;;;;;4.67;3.00;;;;;12.91;71.63;101079.63;5079182;27;45386;-72
2022/12/24 10:05:21;;;;;;;;;4.67;3.67;;;;;13.24;71.61;101125.38;5079829;28;45305;-74
2022/12/24 10:08:18;;;;;;;;;4.67;4.00;;;;;13.20;71.71;101106.13;5080926;28;45479;-72
2022/12/24 10:10:51;;;;;;;;;3.33;2.00;;;;;12.74;71.15;101040.41;5076651;27;46495;-73
2022/12/24 10:13:43;;;;;;;;;7.33;2.00;;;;;12.68;71.18;101025.84;5076727;27;45309;-74
2022/12/24 10:16:18;;;;;;;;;1.00;1.00;;;;;13.29;71.19;101141.78;5058474;28;45304;-73
2022/12/24 10:18:50;;;;;;;;;4.67;3.67;;;;;12.72;71.70;101034.41;5058099;28;46057;-73
2022/12/24 10:21:34;;;;;;;;;3.00;2.00;;;;;12.71;71.25;101022.06;5057993;28;45225;-74
2022/12/24 10:24:06;;;;;;;;;3.33;2.33;;;;;13.04;71.25;101074.75;5040311;28;45481;-73
2022/12/24 10:26:32;;;;;;;;;2.00;2.00;;;;;13.45;71.02;101138.44;5039856;28;45506;-73
2022/12/24 10:29:05;;;;;;;;;3.00;2.00;;;;;13.45;71.18;101138.44;5057924;28;46551;-73
2022/12/24 10:31:51;;;;;;;;;3.00;1.50;;;;;13.27;71.59;101106.38;5058236;28;45293;-72
2022/12/24 10:34:21;;;;;;;;;3.50;2.75;;;;;12.69;70.75;100997.34;5058213;28;45513;-72
2022/12/24 10:36:47;;;;;;;;;4.50;3.25;;;;;13.46;71.20;101132.94;5058324;28;45468;-72
2022/12/24 10:39:19;;;;;;;;;1.00;1.00;;;;;13.06;70.69;101055.94;5058027;28;46425;-71
2022/12/24 10:41:47;;;;;;;;;1.50;1.50;;;;;13.49;70.51;101108.59;5058052;28;45494;-73
2022/12/24 10:44:17;;;;;;;;;3.67;3.67;;;;;13.68;70.49;101127.13;5058637;28;45377;-74
2022/12/24 10:46:44;;;;;;;;;3.50;2.00;;;;;13.60;70.44;101108.31;5058180;28;45549;-73
2022/12/24 10:49:30;;;;;;;;;4.25;3.25;;;;;13.68;70.62;101124.44;5057529;28;46154;-73
2022/12/24 10:52:02;;;;;;;;;3.00;1.75;;;;;12.99;70.15;100999.63;5057818;28;45341;-73
2022/12/24 10:54:30;;;;;;;;;5.33;3.67;;;;;13.86;69.91;101147.63;5039742;28;45494;-73
2022/12/24 10:56:58;;;;;;;;;3.67;2.00;;;;;12.98;69.81;100984.59;5057171;28;45663;-75
2022/12/24 10:59:32;;;;;;;;;6.00;2.67;;;;;13.97;69.39;101139.34;5057866;28;45807;-73
2022/12/24 11:01:59;;;;;;;;;2.00;2.00;;;;;14.00;69.24;101128.31;5057490;28;45308;-73
2022/12/24 11:04:30;;;;;;;;;3.00;2.67;;;;;14.08;69.16;101131.06;5057496;28;45510;-72
2022/12/24 11:07:01;;;;;;;;;3.33;2.00;;;;;14.09;69.01;101126.56;5039807;28;45265;-72
2022/12/24 11:09:33;;;;;;;;;3.25;3.25;;;;;14.05;68.70;101119.88;5057505;28;45259;-73
2022/12/24 11:12:02;;;;;;;;;4.00;4.00;;;;;13.95;68.56;101098.56;5057408;28;45510;-74
2022/12/24 11:14:32;;;;;;;;;3.75;1.50;;;;;14.01;68.49;101116.63;5057496;28;45228;-72
2022/12/24 11:16:58;;;;;;;;;2.00;1.00;;;;;14.06;68.72;101127.72;5057902;28;45365;-74
2022/12/24 11:19:36;;;;;;;;;3.00;1.25;;;;;14.00;68.61;101113.13;5057149;28;45756;-73
2022/12/24 11:22:05;;;;;;;;;3.50;1.00;;;;;14.01;68.62;101116.63;5057245;28;45505;-73
2022/12/24 11:24:36;;;;;;;;;2.75;1.50;;;;;13.73;68.73;101067.84;5057402;28;45180;-74
2022/12/24 11:27:31;;;;;;;;;3.00;2.00;;;;;14.08;68.56;101109.69;5057540;28;45195;-75
2022/12/24 11:30:30;;;;;;;;;3.67;1.33;;;;;13.90;68.77;101080.34;5039336;28;48424;-74
2022/12/24 11:33:01;;;;;;;;;6.33;3.33;;;;;14.14;68.88;101109.03;5032688;28;45497;-73
2022/12/24 11:35:30;;;;;;;;;2.00;2.00;;;;;14.03;68.86;101109.31;5057379;28;45323;-73